sensor_id;sensor_type;location;lat;lon;timestamp;P1;durP1;ratioP1;P2;durP2;ratioP2
19231;SDS011;9750;48.730;10.294;2022-08-21T00:00:47;4.40;;;3.33;;
19231;SDS011;9750;48.730;10.294;2022-08-21T00:03:15;5.13;;;3.00;;
19231;SDS011;9750;48.730;10.294;2022-08-21T00:05:44;3.63;;;3.00;;
19231;SDS011;9750;48.730;10.294;2022-08-21T00:08:14;4.93;;;3.20;;
19231;SDS011;9750;48.730;10.294;2022-08-21T00:10:44;3.63;;;2.90;;
19231;SDS011;9750;48.730;10.294;2022-08-21T00:13:12;5.17;;;2.93;;
19231;SDS011;9750;48.730;10.294;2022-08-21T00:15:40;5.17;;;3.53;;
19231;SDS011;9750;48.730;10.294;2022-08-21T00:18:08;4.53;;;3.10;;
19231;SDS011;9750;48.730;10.294;2022-08-21T00:20:37;5.80;;;3.23;;
19231;SDS011;9750;48.730;10.294;2022-08-21T00:26:28;3.80;;;3.07;;
19231;SDS011;9750;48.730;10.294;2022-08-21T00:28:55;3.80;;;3.00;;
19231;SDS011;9750;48.730;10.294;2022-08-21T00:31:23;3.80;;;2.80;;
19231;SDS011;9750;48.730;10.294;2022-08-21T00:33:50;4.53;;;3.23;;
19231;SDS011;9750;48.730;10.294;2022-08-21T00:36:18;3.80;;;3.00;;
19231;SDS011;9750;48.730;10.294;2022-08-21T00:38:45;6.33;;;3.27;;
19231;SDS011;9750;48.730;10.294;2022-08-21T00:41:12;4.60;;;2.87;;
19231;SDS011;9750;48.730;10.294;2022-08-21T00:43:41;3.70;;;2.87;;
19231;SDS011;9750;48.730;10.294;2022-08-21T00:46:08;4.77;;;3.10;;
19231;SDS011;9750;48.730;10.294;2022-08-21T00:48:35;5.17;;;3.47;;
19231;SDS011;9750;48.730;10.294;2022-08-21T00:51:04;4.03;;;3.10;;
19231;SDS011;9750;48.730;10.294;2022-08-21T00:53:34;4.83;;;3.27;;
19231;SDS011;9750;48.730;10.294;2022-08-21T00:56:03;3.53;;;3.23;;
19231;SDS011;9750;48.730;10.294;2022-08-21T00:58:33;4.40;;;3.10;;
19231;SDS011;9750;48.730;10.294;2022-08-21T01:01:03;3.90;;;3.20;;
19231;SDS011;9750;48.730;10.294;2022-08-21T01:03:32;5.83;;;3.33;;
19231;SDS011;9750;48.730;10.294;2022-08-21T01:06:00;7.27;;;3.40;;
19231;SDS011;9750;48.730;10.294;2022-08-21T01:08:29;3.73;;;2.90;;
19231;SDS011;9750;48.730;10.294;2022-08-21T01:10:57;4.40;;;3.17;;
19231;SDS011;9750;48.730;10.294;2022-08-21T01:13:26;4.83;;;3.00;;
19231;SDS011;9750;48.730;10.294;2022-08-21T01:15:56;4.63;;;3.10;;
19231;SDS011;9750;48.730;10.294;2022-08-21T01:18:27;7.10;;;3.27;;
19231;SDS011;9750;48.730;10.294;2022-08-21T01:21:04;3.97;;;3.30;;
19231;SDS011;9750;48.730;10.294;2022-08-21T01:23:36;4.07;;;3.10;;
19231;SDS011;9750;48.730;10.294;2022-08-21T01:26:06;4.93;;;3.17;;
19231;SDS011;9750;48.730;10.294;2022-08-21T01:28:34;5.10;;;3.17;;
19231;SDS011;9750;48.730;10.294;2022-08-21T01:31:07;6.03;;;3.40;;
19231;SDS011;9750;48.730;10.294;2022-08-21T01:33:36;3.13;;;2.83;;
19231;SDS011;9750;48.730;10.294;2022-08-21T01:36:05;3.97;;;3.17;;
19231;SDS011;9750;48.730;10.294;2022-08-21T01:38:33;3.73;;;2.87;;
19231;SDS011;9750;48.730;10.294;2022-08-21T01:41:01;3.60;;;3.20;;
19231;SDS011;9750;48.730;10.294;2022-08-21T01:43:28;5.23;;;2.90;;
19231;SDS011;9750;48.730;10.294;2022-08-21T01:45:55;3.40;;;3.10;;
19231;SDS011;9750;48.730;10.294;2022-08-21T01:48:23;4.50;;;3.40;;
19231;SDS011;9750;48.730;10.294;2022-08-21T01:50:50;5.23;;;3.30;;
19231;SDS011;9750;48.730;10.294;2022-08-21T01:53:19;5.90;;;4.07;;
19231;SDS011;9750;48.730;10.294;2022-08-21T01:55:46;8.30;;;4.17;;
19231;SDS011;9750;48.730;10.294;2022-08-21T01:58:14;3.97;;;3.53;;
19231;SDS011;9750;48.730;10.294;2022-08-21T02:00:41;3.93;;;3.50;;
19231;SDS011;9750;48.730;10.294;2022-08-21T02:03:08;5.33;;;3.40;;
19231;SDS011;9750;48.730;10.294;2022-08-21T02:05:36;6.70;;;3.77;;
19231;SDS011;9750;48.730;10.294;2022-08-21T02:08:03;5.50;;;4.13;;
19231;SDS011;9750;48.730;10.294;2022-08-21T02:10:34;6.07;;;3.97;;
19231;SDS011;9750;48.730;10.294;2022-08-21T02:13:04;5.77;;;4.70;;
19231;SDS011;9750;48.730;10.294;2022-08-21T02:15:32;6.43;;;4.33;;
19231;SDS011;9750;48.730;10.294;2022-08-21T02:18:00;5.93;;;4.27;;
19231;SDS011;9750;48.730;10.294;2022-08-21T02:20:30;5.30;;;4.10;;
19231;SDS011;9750;48.730;10.294;2022-08-21T02:23:00;5.47;;;4.10;;
19231;SDS011;9750;48.730;10.294;2022-08-21T02:25:29;6.93;;;4.80;;
19231;SDS011;9750;48.730;10.294;2022-08-21T02:27:59;5.43;;;4.10;;
19231;SDS011;9750;48.730;10.294;2022-08-21T02:30:30;6.37;;;4.70;;
19231;SDS011;9750;48.730;10.294;2022-08-21T02:36:04;6.37;;;4.53;;
19231;SDS011;9750;48.730;10.294;2022-08-21T02:38:33;5.10;;;4.57;;
19231;SDS011;9750;48.730;10.294;2022-08-21T02:41:03;5.10;;;4.60;;
19231;SDS011;9750;48.730;10.294;2022-08-21T02:43:34;5.23;;;4.53;;
19231;SDS011;9750;48.730;10.294;2022-08-21T02:46:02;6.03;;;4.97;;
19231;SDS011;9750;48.730;10.294;2022-08-21T02:48:31;6.17;;;4.63;;
19231;SDS011;9750;48.730;10.294;2022-08-21T02:51:02;5.63;;;4.63;;
19231;SDS011;9750;48.730;10.294;2022-08-21T02:53:31;5.20;;;4.37;;
19231;SDS011;9750;48.730;10.294;2022-08-21T02:56:00;5.00;;;4.60;;
19231;SDS011;9750;48.730;10.294;2022-08-21T02:58:30;4.90;;;4.40;;
19231;SDS011;9750;48.730;10.294;2022-08-21T03:01:02;4.80;;;4.37;;
19231;SDS011;9750;48.730;10.294;2022-08-21T03:03:30;4.97;;;4.50;;
19231;SDS011;9750;48.730;10.294;2022-08-21T03:06:00;5.20;;;4.70;;
19231;SDS011;9750;48.730;10.294;2022-08-21T03:08:27;5.80;;;4.73;;
19231;SDS011;9750;48.730;10.294;2022-08-21T03:10:55;5.60;;;4.73;;
19231;SDS011;9750;48.730;10.294;2022-08-21T03:13:24;5.80;;;5.30;;
19231;SDS011;9750;48.730;10.294;2022-08-21T03:15:53;5.10;;;4.60;;
19231;SDS011;9750;48.730;10.294;2022-08-21T03:18:22;6.17;;;4.97;;
19231;SDS011;9750;48.730;10.294;2022-08-21T03:20:49;5.60;;;4.67;;
19231;SDS011;9750;48.730;10.294;2022-08-21T03:23:17;6.03;;;4.57;;
19231;SDS011;9750;48.730;10.294;2022-08-21T03:25:45;5.47;;;4.93;;
19231;SDS011;9750;48.730;10.294;2022-08-21T03:28:14;6.07;;;5.03;;
19231;SDS011;9750;48.730;10.294;2022-08-21T03:30:44;7.33;;;5.10;;
19231;SDS011;9750;48.730;10.294;2022-08-21T03:33:14;9.60;;;5.10;;
19231;SDS011;9750;48.730;10.294;2022-08-21T03:35:44;6.53;;;4.90;;
19231;SDS011;9750;48.730;10.294;2022-08-21T03:38:16;6.57;;;4.90;;
19231;SDS011;9750;48.730;10.294;2022-08-21T03:40:44;6.70;;;5.27;;
19231;SDS011;9750;48.730;10.294;2022-08-21T03:43:12;6.60;;;4.97;;
19231;SDS011;9750;48.730;10.294;2022-08-21T03:45:39;5.67;;;5.03;;
19231;SDS011;9750;48.730;10.294;2022-08-21T03:48:07;6.43;;;5.03;;
19231;SDS011;9750;48.730;10.294;2022-08-21T03:50:36;7.50;;;5.87;;
19231;SDS011;9750;48.730;10.294;2022-08-21T03:53:07;8.53;;;5.43;;
19231;SDS011;9750;48.730;10.294;2022-08-21T03:55:36;5.80;;;5.30;;
19231;SDS011;9750;48.730;10.294;2022-08-21T03:58:03;6.00;;;5.20;;
19231;SDS011;9750;48.730;10.294;2022-08-21T04:00:31;6.50;;;5.80;;
19231;SDS011;9750;48.730;10.294;2022-08-21T04:06:20;5.90;;;5.40;;
19231;SDS011;9750;48.730;10.294;2022-08-21T04:08:49;6.57;;;5.63;;
19231;SDS011;9750;48.730;10.294;2022-08-21T04:11:17;7.23;;;6.13;;
19231;SDS011;9750;48.730;10.294;2022-08-21T04:13:44;7.20;;;6.10;;
19231;SDS011;9750;48.730;10.294;2022-08-21T04:16:12;8.00;;;6.30;;
19231;SDS011;9750;48.730;10.294;2022-08-21T04:18:40;7.50;;;6.80;;
19231;SDS011;9750;48.730;10.294;2022-08-21T04:21:08;8.03;;;6.57;;
19231;SDS011;9750;48.730;10.294;2022-08-21T04:23:37;7.13;;;5.90;;
19231;SDS011;9750;48.730;10.294;2022-08-21T04:26:06;6.80;;;6.10;;
19231;SDS011;9750;48.730;10.294;2022-08-21T04:28:34;6.63;;;5.97;;
19231;SDS011;9750;48.730;10.294;2022-08-21T04:31:01;8.77;;;6.73;;
19231;SDS011;9750;48.730;10.294;2022-08-21T04:33:28;8.83;;;6.03;;
19231;SDS011;9750;48.730;10.294;2022-08-21T04:35:55;6.73;;;6.13;;
19231;SDS011;9750;48.730;10.294;2022-08-21T04:38:23;7.93;;;6.23;;
19231;SDS011;9750;48.730;10.294;2022-08-21T04:40:51;6.93;;;6.30;;
19231;SDS011;9750;48.730;10.294;2022-08-21T04:43:20;7.90;;;7.20;;
19231;SDS011;9750;48.730;10.294;2022-08-21T04:45:48;8.73;;;6.97;;
19231;SDS011;9750;48.730;10.294;2022-08-21T04:48:18;7.53;;;6.77;;
19231;SDS011;9750;48.730;10.294;2022-08-21T04:50:48;7.80;;;7.00;;
19231;SDS011;9750;48.730;10.294;2022-08-21T04:53:20;7.40;;;6.70;;
19231;SDS011;9750;48.730;10.294;2022-08-21T04:55:51;7.13;;;6.43;;
19231;SDS011;9750;48.730;10.294;2022-08-21T04:58:22;7.47;;;6.77;;
19231;SDS011;9750;48.730;10.294;2022-08-21T05:00:52;7.67;;;6.87;;
19231;SDS011;9750;48.730;10.294;2022-08-21T05:03:20;7.43;;;6.83;;
19231;SDS011;9750;48.730;10.294;2022-08-21T05:05:48;8.23;;;7.00;;
19231;SDS011;9750;48.730;10.294;2022-08-21T05:08:17;7.67;;;6.87;;
19231;SDS011;9750;48.730;10.294;2022-08-21T05:10:48;8.00;;;7.17;;
19231;SDS011;9750;48.730;10.294;2022-08-21T05:13:16;7.50;;;6.80;;
19231;SDS011;9750;48.730;10.294;2022-08-21T05:15:46;7.97;;;7.20;;
19231;SDS011;9750;48.730;10.294;2022-08-21T05:18:13;8.00;;;6.77;;
19231;SDS011;9750;48.730;10.294;2022-08-21T05:20:41;7.70;;;6.83;;
19231;SDS011;9750;48.730;10.294;2022-08-21T05:23:10;8.50;;;6.70;;
19231;SDS011;9750;48.730;10.294;2022-08-21T05:25:39;7.70;;;7.00;;
19231;SDS011;9750;48.730;10.294;2022-08-21T05:28:08;8.53;;;7.43;;
19231;SDS011;9750;48.730;10.294;2022-08-21T05:30:37;9.87;;;7.53;;
19231;SDS011;9750;48.730;10.294;2022-08-21T05:33:06;9.13;;;7.53;;
19231;SDS011;9750;48.730;10.294;2022-08-21T05:35:34;9.90;;;7.37;;
19231;SDS011;9750;48.730;10.294;2022-08-21T05:38:02;7.50;;;6.80;;
19231;SDS011;9750;48.730;10.294;2022-08-21T05:40:31;9.33;;;7.20;;
19231;SDS011;9750;48.730;10.294;2022-08-21T05:45:38;9.00;;;8.10;;
19231;SDS011;9750;48.730;10.294;2022-08-21T05:48:07;8.90;;;7.70;;
19231;SDS011;9750;48.730;10.294;2022-08-21T05:50:36;7.73;;;7.03;;
19231;SDS011;9750;48.730;10.294;2022-08-21T05:53:03;8.03;;;7.23;;
19231;SDS011;9750;48.730;10.294;2022-08-21T05:55:31;7.43;;;6.73;;
19231;SDS011;9750;48.730;10.294;2022-08-21T05:57:58;9.90;;;7.97;;
19231;SDS011;9750;48.730;10.294;2022-08-21T06:00:26;8.87;;;7.97;;
19231;SDS011;9750;48.730;10.294;2022-08-21T06:02:53;8.87;;;7.97;;
19231;SDS011;9750;48.730;10.294;2022-08-21T06:05:22;8.73;;;6.97;;
19231;SDS011;9750;48.730;10.294;2022-08-21T06:07:50;7.53;;;6.80;;
19231;SDS011;9750;48.730;10.294;2022-08-21T06:10:17;7.43;;;6.73;;
19231;SDS011;9750;48.730;10.294;2022-08-21T06:12:45;8.00;;;6.57;;
19231;SDS011;9750;48.730;10.294;2022-08-21T06:15:12;6.57;;;5.90;;
19231;SDS011;9750;48.730;10.294;2022-08-21T06:17:39;7.03;;;6.00;;
19231;SDS011;9750;48.730;10.294;2022-08-21T06:20:07;6.27;;;5.67;;
19231;SDS011;9750;48.730;10.294;2022-08-21T06:22:37;7.33;;;5.73;;
19231;SDS011;9750;48.730;10.294;2022-08-21T06:25:04;7.57;;;5.87;;
19231;SDS011;9750;48.730;10.294;2022-08-21T06:27:32;7.40;;;6.70;;
19231;SDS011;9750;48.730;10.294;2022-08-21T06:29:59;6.70;;;6.00;;
19231;SDS011;9750;48.730;10.294;2022-08-21T06:32:27;6.57;;;5.60;;
19231;SDS011;9750;48.730;10.294;2022-08-21T06:34:54;5.97;;;5.37;;
19231;SDS011;9750;48.730;10.294;2022-08-21T06:37:21;6.27;;;5.50;;
19231;SDS011;9750;48.730;10.294;2022-08-21T06:39:50;6.63;;;5.70;;
19231;SDS011;9750;48.730;10.294;2022-08-21T06:42:18;8.07;;;5.80;;
19231;SDS011;9750;48.730;10.294;2022-08-21T06:44:45;6.73;;;5.47;;
19231;SDS011;9750;48.730;10.294;2022-08-21T06:47:13;8.77;;;6.23;;
19231;SDS011;9750;48.730;10.294;2022-08-21T06:49:41;8.20;;;6.63;;
19231;SDS011;9750;48.730;10.294;2022-08-21T06:52:09;6.90;;;6.23;;
19231;SDS011;9750;48.730;10.294;2022-08-21T06:54:37;7.63;;;6.57;;
19231;SDS011;9750;48.730;10.294;2022-08-21T06:57:07;6.77;;;6.17;;
19231;SDS011;9750;48.730;10.294;2022-08-21T06:59:35;6.73;;;6.03;;
19231;SDS011;9750;48.730;10.294;2022-08-21T07:02:02;6.27;;;5.67;;
19231;SDS011;9750;48.730;10.294;2022-08-21T07:04:30;7.03;;;6.13;;
19231;SDS011;9750;48.730;10.294;2022-08-21T07:06:57;7.37;;;6.07;;
19231;SDS011;9750;48.730;10.294;2022-08-21T07:09:24;8.13;;;6.20;;
19231;SDS011;9750;48.730;10.294;2022-08-21T07:11:53;6.43;;;5.77;;
19231;SDS011;9750;48.730;10.294;2022-08-21T07:14:23;6.40;;;5.80;;
19231;SDS011;9750;48.730;10.294;2022-08-21T07:16:50;9.90;;;6.73;;
19231;SDS011;9750;48.730;10.294;2022-08-21T07:19:18;7.50;;;6.13;;
19231;SDS011;9750;48.730;10.294;2022-08-21T07:21:45;7.27;;;6.57;;
19231;SDS011;9750;48.730;10.294;2022-08-21T07:24:13;6.80;;;6.10;;
19231;SDS011;9750;48.730;10.294;2022-08-21T07:26:40;7.33;;;5.80;;
19231;SDS011;9750;48.730;10.294;2022-08-21T07:29:08;7.47;;;5.90;;
19231;SDS011;9750;48.730;10.294;2022-08-21T07:31:37;6.70;;;6.10;;
19231;SDS011;9750;48.730;10.294;2022-08-21T07:34:04;7.50;;;6.40;;
19231;SDS011;9750;48.730;10.294;2022-08-21T07:36:33;7.07;;;6.17;;
19231;SDS011;9750;48.730;10.294;2022-08-21T07:39:00;7.07;;;6.37;;
19231;SDS011;9750;48.730;10.294;2022-08-21T07:41:28;7.93;;;6.73;;
19231;SDS011;9750;48.730;10.294;2022-08-21T07:43:57;8.17;;;6.40;;
19231;SDS011;9750;48.730;10.294;2022-08-21T07:46:25;7.70;;;6.17;;
19231;SDS011;9750;48.730;10.294;2022-08-21T07:48:55;7.50;;;6.10;;
19231;SDS011;9750;48.730;10.294;2022-08-21T07:51:23;7.07;;;6.37;;
19231;SDS011;9750;48.730;10.294;2022-08-21T07:53:53;6.67;;;5.80;;
19231;SDS011;9750;48.730;10.294;2022-08-21T07:56:22;8.20;;;6.73;;
19231;SDS011;9750;48.730;10.294;2022-08-21T07:58:50;8.63;;;6.50;;
19231;SDS011;9750;48.730;10.294;2022-08-21T08:01:17;8.00;;;6.43;;
19231;SDS011;9750;48.730;10.294;2022-08-21T08:03:45;7.30;;;6.60;;
19231;SDS011;9750;48.730;10.294;2022-08-21T08:06:14;7.03;;;6.33;;
19231;SDS011;9750;48.730;10.294;2022-08-21T08:08:43;9.87;;;6.17;;
19231;SDS011;9750;48.730;10.294;2022-08-21T08:11:12;8.10;;;6.60;;
19231;SDS011;9750;48.730;10.294;2022-08-21T08:13:40;9.00;;;6.63;;
19231;SDS011;9750;48.730;10.294;2022-08-21T08:16:09;7.50;;;6.40;;
19231;SDS011;9750;48.730;10.294;2022-08-21T08:18:37;7.77;;;6.63;;
19231;SDS011;9750;48.730;10.294;2022-08-21T08:21:04;6.90;;;6.03;;
19231;SDS011;9750;48.730;10.294;2022-08-21T08:23:33;7.37;;;6.10;;
19231;SDS011;9750;48.730;10.294;2022-08-21T08:26:01;7.10;;;6.40;;
19231;SDS011;9750;48.730;10.294;2022-08-21T08:28:29;9.20;;;6.30;;
19231;SDS011;9750;48.730;10.294;2022-08-21T08:30:57;8.20;;;6.23;;
19231;SDS011;9750;48.730;10.294;2022-08-21T08:33:24;7.53;;;5.90;;
19231;SDS011;9750;48.730;10.294;2022-08-21T08:35:52;8.33;;;5.50;;
19231;SDS011;9750;48.730;10.294;2022-08-21T08:38:21;6.23;;;5.60;;
19231;SDS011;9750;48.730;10.294;2022-08-21T08:40:52;6.73;;;5.30;;
19231;SDS011;9750;48.730;10.294;2022-08-21T08:43:25;7.47;;;5.70;;
19231;SDS011;9750;48.730;10.294;2022-08-21T08:45:54;7.43;;;5.50;;
19231;SDS011;9750;48.730;10.294;2022-08-21T08:48:31;7.40;;;6.07;;
19231;SDS011;9750;48.730;10.294;2022-08-21T08:51:08;7.57;;;5.70;;
19231;SDS011;9750;48.730;10.294;2022-08-21T08:53:43;8.67;;;6.07;;
19231;SDS011;9750;48.730;10.294;2022-08-21T08:56:18;7.37;;;5.43;;
19231;SDS011;9750;48.730;10.294;2022-08-21T08:58:48;7.33;;;5.37;;
19231;SDS011;9750;48.730;10.294;2022-08-21T09:01:19;7.53;;;4.53;;
19231;SDS011;9750;48.730;10.294;2022-08-21T09:03:47;5.70;;;4.80;;
19231;SDS011;9750;48.730;10.294;2022-08-21T09:06:19;6.47;;;5.10;;
19231;SDS011;9750;48.730;10.294;2022-08-21T09:08:59;5.40;;;4.90;;
19231;SDS011;9750;48.730;10.294;2022-08-21T09:11:37;6.07;;;4.83;;
19231;SDS011;9750;48.730;10.294;2022-08-21T09:14:14;8.80;;;4.80;;
19231;SDS011;9750;48.730;10.294;2022-08-21T09:16:50;6.83;;;4.73;;
19231;SDS011;9750;48.730;10.294;2022-08-21T09:19:34;8.03;;;5.00;;
19231;SDS011;9750;48.730;10.294;2022-08-21T09:22:13;7.30;;;4.97;;
19231;SDS011;9750;48.730;10.294;2022-08-21T09:24:49;6.83;;;4.10;;
19231;SDS011;9750;48.730;10.294;2022-08-21T09:27:30;7.37;;;4.20;;
19231;SDS011;9750;48.730;10.294;2022-08-21T09:29:58;7.60;;;4.37;;
19231;SDS011;9750;48.730;10.294;2022-08-21T09:32:28;8.07;;;4.73;;
19231;SDS011;9750;48.730;10.294;2022-08-21T09:34:58;6.63;;;4.40;;
19231;SDS011;9750;48.730;10.294;2022-08-21T09:37:28;5.28;;;4.03;;
19231;SDS011;9750;48.730;10.294;2022-08-21T09:39:58;8.90;;;4.70;;
19231;SDS011;9750;48.730;10.294;2022-08-21T09:42:28;7.35;;;4.57;;
19231;SDS011;9750;48.730;10.294;2022-08-21T09:45:08;6.40;;;4.25;;
19231;SDS011;9750;48.730;10.294;2022-08-21T09:47:40;5.65;;;4.55;;
19231;SDS011;9750;48.730;10.294;2022-08-21T09:50:12;6.30;;;4.38;;
19231;SDS011;9750;48.730;10.294;2022-08-21T09:52:45;5.95;;;4.82;;
19231;SDS011;9750;48.730;10.294;2022-08-21T09:55:19;5.10;;;4.60;;
19231;SDS011;9750;48.730;10.294;2022-08-21T09:58:08;5.68;;;4.35;;
19231;SDS011;9750;48.730;10.294;2022-08-21T10:00:35;4.85;;;4.07;;
19231;SDS011;9750;48.730;10.294;2022-08-21T10:03:10;6.32;;;4.32;;
19231;SDS011;9750;48.730;10.294;2022-08-21T10:05:39;7.70;;;4.22;;
19231;SDS011;9750;48.730;10.294;2022-08-21T10:08:16;7.10;;;3.80;;
19231;SDS011;9750;48.730;10.294;2022-08-21T10:10:44;5.55;;;4.30;;
19231;SDS011;9750;48.730;10.294;2022-08-21T10:13:19;7.15;;;3.83;;
19231;SDS011;9750;48.730;10.294;2022-08-21T10:15:53;4.85;;;4.03;;
19231;SDS011;9750;48.730;10.294;2022-08-21T10:18:27;6.85;;;4.30;;
19231;SDS011;9750;48.730;10.294;2022-08-21T10:21:02;6.93;;;3.85;;
19231;SDS011;9750;48.730;10.294;2022-08-21T10:23:39;6.18;;;3.83;;
19231;SDS011;9750;48.730;10.294;2022-08-21T10:26:23;4.55;;;3.53;;
19231;SDS011;9750;48.730;10.294;2022-08-21T10:29:02;5.63;;;3.85;;
19231;SDS011;9750;48.730;10.294;2022-08-21T10:31:39;4.28;;;3.50;;
19231;SDS011;9750;48.730;10.294;2022-08-21T10:34:15;6.22;;;3.90;;
19231;SDS011;9750;48.730;10.294;2022-08-21T10:37:00;5.13;;;3.50;;
19231;SDS011;9750;48.730;10.294;2022-08-21T10:39:39;5.55;;;3.80;;
19231;SDS011;9750;48.730;10.294;2022-08-21T10:42:19;7.47;;;3.80;;
19231;SDS011;9750;48.730;10.294;2022-08-21T10:44:57;7.97;;;4.10;;
19231;SDS011;9750;48.730;10.294;2022-08-21T10:47:38;6.03;;;3.53;;
19231;SDS011;9750;48.730;10.294;2022-08-21T10:50:11;3.92;;;3.20;;
19231;SDS011;9750;48.730;10.294;2022-08-21T10:52:50;6.32;;;3.45;;
19231;SDS011;9750;48.730;10.294;2022-08-21T10:55:44;8.77;;;3.90;;
19231;SDS011;9750;48.730;10.294;2022-08-21T10:58:18;5.10;;;3.22;;
19231;SDS011;9750;48.730;10.294;2022-08-21T11:00:55;3.63;;;3.08;;
19231;SDS011;9750;48.730;10.294;2022-08-21T11:03:28;5.07;;;3.35;;
19231;SDS011;9750;48.730;10.294;2022-08-21T11:06:00;4.00;;;3.50;;
19231;SDS011;9750;48.730;10.294;2022-08-21T11:08:33;5.65;;;3.78;;
19231;SDS011;9750;48.730;10.294;2022-08-21T11:11:05;5.03;;;3.63;;
19231;SDS011;9750;48.730;10.294;2022-08-21T11:13:37;5.55;;;3.50;;
19231;SDS011;9750;48.730;10.294;2022-08-21T11:16:12;4.88;;;3.25;;
19231;SDS011;9750;48.730;10.294;2022-08-21T11:18:47;4.28;;;3.38;;
19231;SDS011;9750;48.730;10.294;2022-08-21T11:21:26;5.00;;;3.25;;
19231;SDS011;9750;48.730;10.294;2022-08-21T11:24:00;5.13;;;2.90;;
19231;SDS011;9750;48.730;10.294;2022-08-21T11:26:34;3.10;;;2.58;;
19231;SDS011;9750;48.730;10.294;2022-08-21T11:29:09;6.55;;;3.42;;
19231;SDS011;9750;48.730;10.294;2022-08-21T11:31:45;5.47;;;3.38;;
19231;SDS011;9750;48.730;10.294;2022-08-21T11:34:28;10.02;;;3.53;;
19231;SDS011;9750;48.730;10.294;2022-08-21T11:37:08;4.55;;;3.13;;
19231;SDS011;9750;48.730;10.294;2022-08-21T11:39:45;5.68;;;3.30;;
19231;SDS011;9750;48.730;10.294;2022-08-21T11:42:24;4.00;;;3.15;;
19231;SDS011;9750;48.730;10.294;2022-08-21T11:45:01;7.35;;;3.08;;
19231;SDS011;9750;48.730;10.294;2022-08-21T11:47:41;4.13;;;3.10;;
19231;SDS011;9750;48.730;10.294;2022-08-21T11:50:16;5.18;;;3.33;;
19231;SDS011;9750;48.730;10.294;2022-08-21T11:52:45;4.13;;;3.38;;
19231;SDS011;9750;48.730;10.294;2022-08-21T11:55:18;5.78;;;3.75;;
19231;SDS011;9750;48.730;10.294;2022-08-21T11:57:51;4.80;;;3.38;;
19231;SDS011;9750;48.730;10.294;2022-08-21T12:00:22;6.97;;;3.58;;
19231;SDS011;9750;48.730;10.294;2022-08-21T12:02:56;4.30;;;3.28;;
19231;SDS011;9750;48.730;10.294;2022-08-21T12:05:39;5.20;;;3.58;;
19231;SDS011;9750;48.730;10.294;2022-08-21T12:08:11;4.20;;;3.42;;
19231;SDS011;9750;48.730;10.294;2022-08-21T12:10:42;5.18;;;3.40;;
19231;SDS011;9750;48.730;10.294;2022-08-21T12:13:21;4.30;;;3.35;;
19231;SDS011;9750;48.730;10.294;2022-08-21T12:15:51;6.18;;;3.58;;
19231;SDS011;9750;48.730;10.294;2022-08-21T12:18:22;5.07;;;3.70;;
19231;SDS011;9750;48.730;10.294;2022-08-21T12:21:03;4.68;;;3.22;;
19231;SDS011;9750;48.730;10.294;2022-08-21T12:23:45;6.15;;;3.30;;
19231;SDS011;9750;48.730;10.294;2022-08-21T12:26:26;5.78;;;3.70;;
19231;SDS011;9750;48.730;10.294;2022-08-21T12:29:13;5.57;;;3.90;;
19231;SDS011;9750;48.730;10.294;2022-08-21T12:31:56;5.22;;;3.40;;
19231;SDS011;9750;48.730;10.294;2022-08-21T12:34:30;4.15;;;3.30;;
19231;SDS011;9750;48.730;10.294;2022-08-21T12:37:02;5.47;;;3.60;;
19231;SDS011;9750;48.730;10.294;2022-08-21T12:39:33;5.38;;;3.53;;
19231;SDS011;9750;48.730;10.294;2022-08-21T12:42:05;3.58;;;2.97;;
19231;SDS011;9750;48.730;10.294;2022-08-21T12:44:43;5.47;;;3.13;;
19231;SDS011;9750;48.730;10.294;2022-08-21T12:47:15;6.38;;;3.28;;
19231;SDS011;9750;48.730;10.294;2022-08-21T12:49:53;3.47;;;3.10;;
19231;SDS011;9750;48.730;10.294;2022-08-21T12:52:28;4.15;;;3.50;;
19231;SDS011;9750;48.730;10.294;2022-08-21T12:54:58;4.57;;;3.65;;
19231;SDS011;9750;48.730;10.294;2022-08-21T12:57:28;4.13;;;3.42;;
19231;SDS011;9750;48.730;10.294;2022-08-21T12:59:57;4.10;;;3.13;;
19231;SDS011;9750;48.730;10.294;2022-08-21T13:02:26;5.30;;;3.40;;
19231;SDS011;9750;48.730;10.294;2022-08-21T13:04:58;4.00;;;3.30;;
19231;SDS011;9750;48.730;10.294;2022-08-21T13:07:31;4.10;;;3.50;;
19231;SDS011;9750;48.730;10.294;2022-08-21T13:10:02;3.53;;;3.20;;
19231;SDS011;9750;48.730;10.294;2022-08-21T13:12:33;5.45;;;3.50;;
19231;SDS011;9750;48.730;10.294;2022-08-21T13:15:04;6.57;;;3.63;;
19231;SDS011;9750;48.730;10.294;2022-08-21T13:17:34;4.65;;;3.28;;
19231;SDS011;9750;48.730;10.294;2022-08-21T13:20:07;6.38;;;3.08;;
19231;SDS011;9750;48.730;10.294;2022-08-21T13:26:12;3.95;;;3.25;;
19231;SDS011;9750;48.730;10.294;2022-08-21T13:28:39;3.80;;;3.40;;
19231;SDS011;9750;48.730;10.294;2022-08-21T13:31:09;5.10;;;3.33;;
19231;SDS011;9750;48.730;10.294;2022-08-21T13:33:37;6.63;;;4.35;;
19231;SDS011;9750;48.730;10.294;2022-08-21T13:36:09;3.90;;;3.28;;
19231;SDS011;9750;48.730;10.294;2022-08-21T13:38:40;5.65;;;3.70;;
19231;SDS011;9750;48.730;10.294;2022-08-21T13:41:11;4.90;;;3.13;;
19231;SDS011;9750;48.730;10.294;2022-08-21T13:43:48;3.80;;;2.90;;
19231;SDS011;9750;48.730;10.294;2022-08-21T13:46:17;4.57;;;3.22;;
19231;SDS011;9750;48.730;10.294;2022-08-21T13:48:48;3.95;;;3.15;;
19231;SDS011;9750;48.730;10.294;2022-08-21T13:51:17;3.88;;;3.47;;
19231;SDS011;9750;48.730;10.294;2022-08-21T13:53:46;5.85;;;3.10;;
19231;SDS011;9750;48.730;10.294;2022-08-21T13:56:23;4.82;;;3.25;;
19231;SDS011;9750;48.730;10.294;2022-08-21T13:58:53;6.07;;;3.50;;
19231;SDS011;9750;48.730;10.294;2022-08-21T14:01:23;3.58;;;3.08;;
19231;SDS011;9750;48.730;10.294;2022-08-21T14:03:53;5.00;;;3.45;;
19231;SDS011;9750;48.730;10.294;2022-08-21T14:06:27;4.05;;;3.30;;
19231;SDS011;9750;48.730;10.294;2022-08-21T14:08:59;3.38;;;3.03;;
19231;SDS011;9750;48.730;10.294;2022-08-21T14:11:34;4.13;;;3.30;;
19231;SDS011;9750;48.730;10.294;2022-08-21T14:14:02;7.30;;;3.72;;
19231;SDS011;9750;48.730;10.294;2022-08-21T14:16:41;5.30;;;3.13;;
19231;SDS011;9750;48.730;10.294;2022-08-21T14:19:17;4.25;;;3.20;;
19231;SDS011;9750;48.730;10.294;2022-08-21T14:21:47;3.97;;;3.13;;
19231;SDS011;9750;48.730;10.294;2022-08-21T14:24:24;4.07;;;3.20;;
19231;SDS011;9750;48.730;10.294;2022-08-21T14:26:54;4.10;;;3.05;;
19231;SDS011;9750;48.730;10.294;2022-08-21T14:29:24;4.57;;;3.10;;
19231;SDS011;9750;48.730;10.294;2022-08-21T14:31:54;3.80;;;3.40;;
19231;SDS011;9750;48.730;10.294;2022-08-21T14:34:22;4.75;;;3.60;;
19231;SDS011;9750;48.730;10.294;2022-08-21T14:36:54;4.40;;;3.38;;
19231;SDS011;9750;48.730;10.294;2022-08-21T14:39:22;3.78;;;3.00;;
19231;SDS011;9750;48.730;10.294;2022-08-21T14:41:49;3.83;;;3.42;;
19231;SDS011;9750;48.730;10.294;2022-08-21T14:44:19;5.20;;;3.00;;
19231;SDS011;9750;48.730;10.294;2022-08-21T14:46:46;4.03;;;3.00;;
19231;SDS011;9750;48.730;10.294;2022-08-21T14:49:14;4.70;;;3.28;;
19231;SDS011;9750;48.730;10.294;2022-08-21T14:51:41;4.63;;;3.28;;
19231;SDS011;9750;48.730;10.294;2022-08-21T14:54:10;3.45;;;3.15;;
19231;SDS011;9750;48.730;10.294;2022-08-21T14:56:37;3.20;;;2.90;;
19231;SDS011;9750;48.730;10.294;2022-08-21T14:59:06;3.78;;;3.17;;
19231;SDS011;9750;48.730;10.294;2022-08-21T15:04:17;3.42;;;2.90;;
19231;SDS011;9750;48.730;10.294;2022-08-21T15:06:44;4.15;;;3.03;;
19231;SDS011;9750;48.730;10.294;2022-08-21T15:09:13;4.20;;;3.20;;
19231;SDS011;9750;48.730;10.294;2022-08-21T15:11:41;3.30;;;2.90;;
19231;SDS011;9750;48.730;10.294;2022-08-21T15:14:10;4.53;;;3.05;;
19231;SDS011;9750;48.730;10.294;2022-08-21T15:16:44;4.18;;;3.33;;
19231;SDS011;9750;48.730;10.294;2022-08-21T15:19:11;4.85;;;3.30;;
19231;SDS011;9750;48.730;10.294;2022-08-21T15:21:39;4.60;;;2.95;;
19231;SDS011;9750;48.730;10.294;2022-08-21T15:24:06;4.30;;;3.05;;
19231;SDS011;9750;48.730;10.294;2022-08-21T15:26:35;3.50;;;3.20;;